sensor_id;sensor_type;location;lat;lon;timestamp;P1;durP1;ratioP1;P2;durP2;ratioP2
32523;SDS011;18965;52.242;20.886;2022-07-06T00:01:41;5.55;;;4.05;;
32523;SDS011;18965;52.242;20.886;2022-07-06T00:04:08;7.95;;;4.60;;
32523;SDS011;18965;52.242;20.886;2022-07-06T00:06:34;8.88;;;4.60;;
32523;SDS011;18965;52.242;20.886;2022-07-06T00:09:00;17.17;;;5.63;;
32523;SDS011;18965;52.242;20.886;2022-07-06T00:11:26;24.67;;;6.05;;
32523;SDS011;18965;52.242;20.886;2022-07-06T00:13:52;8.25;;;3.90;;
32523;SDS011;18965;52.242;20.886;2022-07-06T00:16:18;18.05;;;5.45;;
32523;SDS011;18965;52.242;20.886;2022-07-06T00:18:44;12.13;;;4.70;;
32523;SDS011;18965;52.242;20.886;2022-07-06T00:21:10;9.20;;;4.20;;
32523;SDS011;18965;52.242;20.886;2022-07-06T00:23:36;19.00;;;5.80;;
32523;SDS011;18965;52.242;20.886;2022-07-06T00:26:02;7.35;;;4.07;;
32523;SDS011;18965;52.242;20.886;2022-07-06T00:28:29;12.52;;;4.82;;
32523;SDS011;18965;52.242;20.886;2022-07-06T00:30:55;8.02;;;4.07;;
32523;SDS011;18965;52.242;20.886;2022-07-06T00:33:21;10.73;;;4.70;;
32523;SDS011;18965;52.242;20.886;2022-07-06T00:35:47;22.67;;;5.57;;
32523;SDS011;18965;52.242;20.886;2022-07-06T00:38:13;20.08;;;6.10;;
32523;SDS011;18965;52.242;20.886;2022-07-06T00:40:38;7.88;;;4.47;;
32523;SDS011;18965;52.242;20.886;2022-07-06T00:43:04;11.45;;;4.57;;
32523;SDS011;18965;52.242;20.886;2022-07-06T00:45:30;8.93;;;4.50;;
32523;SDS011;18965;52.242;20.886;2022-07-06T00:47:56;30.52;;;7.03;;
32523;SDS011;18965;52.242;20.886;2022-07-06T00:50:22;14.43;;;5.10;;
32523;SDS011;18965;52.242;20.886;2022-07-06T00:52:49;7.22;;;4.32;;
32523;SDS011;18965;52.242;20.886;2022-07-06T00:55:23;18.02;;;5.75;;
32523;SDS011;18965;52.242;20.886;2022-07-06T00:57:54;14.00;;;5.25;;
32523;SDS011;18965;52.242;20.886;2022-07-06T01:00:21;8.32;;;4.40;;
32523;SDS011;18965;52.242;20.886;2022-07-06T01:02:49;8.40;;;4.75;;
32523;SDS011;18965;52.242;20.886;2022-07-06T01:05:16;7.47;;;4.47;;
32523;SDS011;18965;52.242;20.886;2022-07-06T01:07:43;9.77;;;4.28;;
32523;SDS011;18965;52.242;20.886;2022-07-06T01:10:11;7.85;;;4.50;;
32523;SDS011;18965;52.242;20.886;2022-07-06T01:12:39;10.75;;;4.95;;
32523;SDS011;18965;52.242;20.886;2022-07-06T01:15:09;8.38;;;4.45;;
32523;SDS011;18965;52.242;20.886;2022-07-06T01:17:38;10.57;;;4.70;;
32523;SDS011;18965;52.242;20.886;2022-07-06T01:20:14;12.23;;;4.47;;
32523;SDS011;18965;52.242;20.886;2022-07-06T01:22:40;8.07;;;4.30;;
32523;SDS011;18965;52.242;20.886;2022-07-06T01:25:07;8.50;;;4.70;;
32523;SDS011;18965;52.242;20.886;2022-07-06T01:27:37;10.95;;;4.43;;
32523;SDS011;18965;52.242;20.886;2022-07-06T01:30:05;8.40;;;4.45;;
32523;SDS011;18965;52.242;20.886;2022-07-06T01:32:32;16.75;;;4.95;;
32523;SDS011;18965;52.242;20.886;2022-07-06T01:34:59;12.63;;;4.88;;
32523;SDS011;18965;52.242;20.886;2022-07-06T01:37:25;11.80;;;4.80;;
32523;SDS011;18965;52.242;20.886;2022-07-06T01:39:50;15.10;;;5.53;;
32523;SDS011;18965;52.242;20.886;2022-07-06T01:42:16;8.88;;;4.32;;
32523;SDS011;18965;52.242;20.886;2022-07-06T01:44:43;4.95;;;4.22;;
32523;SDS011;18965;52.242;20.886;2022-07-06T01:47:09;11.45;;;4.90;;
32523;SDS011;18965;52.242;20.886;2022-07-06T01:49:35;11.82;;;4.63;;
32523;SDS011;18965;52.242;20.886;2022-07-06T01:52:02;18.10;;;5.00;;
32523;SDS011;18965;52.242;20.886;2022-07-06T01:54:28;15.48;;;4.97;;
32523;SDS011;18965;52.242;20.886;2022-07-06T01:56:54;8.32;;;4.22;;
32523;SDS011;18965;52.242;20.886;2022-07-06T01:59:20;8.75;;;4.55;;
32523;SDS011;18965;52.242;20.886;2022-07-06T02:01:46;8.40;;;4.63;;
32523;SDS011;18965;52.242;20.886;2022-07-06T02:04:11;8.75;;;4.22;;
32523;SDS011;18965;52.242;20.886;2022-07-06T02:06:37;10.20;;;4.57;;
32523;SDS011;18965;52.242;20.886;2022-07-06T02:09:03;7.57;;;3.65;;
32523;SDS011;18965;52.242;20.886;2022-07-06T02:11:29;5.55;;;3.70;;
32523;SDS011;18965;52.242;20.886;2022-07-06T02:13:54;6.75;;;3.60;;
32523;SDS011;18965;52.242;20.886;2022-07-06T02:16:20;11.27;;;4.32;;
32523;SDS011;18965;52.242;20.886;2022-07-06T02:18:46;9.68;;;4.20;;
32523;SDS011;18965;52.242;20.886;2022-07-06T02:21:12;11.30;;;4.63;;
32523;SDS011;18965;52.242;20.886;2022-07-06T02:23:38;5.85;;;4.00;;
32523;SDS011;18965;52.242;20.886;2022-07-06T02:26:04;7.20;;;3.92;;
32523;SDS011;18965;52.242;20.886;2022-07-06T02:28:30;16.25;;;5.35;;
32523;SDS011;18965;52.242;20.886;2022-07-06T02:30:56;18.73;;;5.82;;
32523;SDS011;18965;52.242;20.886;2022-07-06T02:33:21;10.38;;;5.13;;
32523;SDS011;18965;52.242;20.886;2022-07-06T02:35:47;9.85;;;4.47;;
32523;SDS011;18965;52.242;20.886;2022-07-06T02:38:13;8.68;;;4.65;;
32523;SDS011;18965;52.242;20.886;2022-07-06T02:40:39;7.55;;;4.47;;
32523;SDS011;18965;52.242;20.886;2022-07-06T02:43:05;9.88;;;5.32;;
32523;SDS011;18965;52.242;20.886;2022-07-06T02:45:31;10.75;;;4.88;;
32523;SDS011;18965;52.242;20.886;2022-07-06T02:47:57;17.80;;;6.07;;
32523;SDS011;18965;52.242;20.886;2022-07-06T02:50:23;9.85;;;5.20;;
32523;SDS011;18965;52.242;20.886;2022-07-06T02:52:50;8.45;;;4.75;;
32523;SDS011;18965;52.242;20.886;2022-07-06T02:55:16;11.38;;;4.72;;
32523;SDS011;18965;52.242;20.886;2022-07-06T02:57:42;9.73;;;4.55;;
32523;SDS011;18965;52.242;20.886;2022-07-06T03:00:08;17.60;;;5.97;;
32523;SDS011;18965;52.242;20.886;2022-07-06T03:02:35;11.18;;;4.82;;
32523;SDS011;18965;52.242;20.886;2022-07-06T03:05:01;11.02;;;5.00;;
32523;SDS011;18965;52.242;20.886;2022-07-06T03:07:27;16.65;;;5.43;;
32523;SDS011;18965;52.242;20.886;2022-07-06T03:09:53;8.30;;;4.18;;
32523;SDS011;18965;52.242;20.886;2022-07-06T03:12:19;12.38;;;4.95;;
32523;SDS011;18965;52.242;20.886;2022-07-06T03:14:45;11.68;;;4.40;;
32523;SDS011;18965;52.242;20.886;2022-07-06T03:17:11;6.70;;;4.50;;
32523;SDS011;18965;52.242;20.886;2022-07-06T03:19:37;9.90;;;4.90;;
32523;SDS011;18965;52.242;20.886;2022-07-06T03:22:02;17.45;;;4.82;;
32523;SDS011;18965;52.242;20.886;2022-07-06T03:24:28;8.05;;;4.70;;
32523;SDS011;18965;52.242;20.886;2022-07-06T03:26:54;6.55;;;4.40;;
32523;SDS011;18965;52.242;20.886;2022-07-06T03:29:20;7.85;;;4.38;;
32523;SDS011;18965;52.242;20.886;2022-07-06T03:31:46;15.85;;;5.60;;
32523;SDS011;18965;52.242;20.886;2022-07-06T03:34:11;8.75;;;5.30;;
32523;SDS011;18965;52.242;20.886;2022-07-06T03:36:38;6.28;;;4.30;;
32523;SDS011;18965;52.242;20.886;2022-07-06T03:39:04;6.88;;;4.13;;
32523;SDS011;18965;52.242;20.886;2022-07-06T03:41:30;9.23;;;3.97;;
32523;SDS011;18965;52.242;20.886;2022-07-06T03:43:57;10.65;;;4.78;;
32523;SDS011;18965;52.242;20.886;2022-07-06T03:46:23;7.15;;;3.95;;
32523;SDS011;18965;52.242;20.886;2022-07-06T03:48:49;16.70;;;4.88;;
32523;SDS011;18965;52.242;20.886;2022-07-06T03:51:14;5.60;;;4.10;;
32523;SDS011;18965;52.242;20.886;2022-07-06T03:53:40;8.05;;;4.05;;
32523;SDS011;18965;52.242;20.886;2022-07-06T03:56:06;9.65;;;4.78;;
32523;SDS011;18965;52.242;20.886;2022-07-06T03:58:50;6.22;;;3.75;;
32523;SDS011;18965;52.242;20.886;2022-07-06T04:01:16;6.00;;;4.20;;
32523;SDS011;18965;52.242;20.886;2022-07-06T04:03:42;5.80;;;3.63;;
32523;SDS011;18965;52.242;20.886;2022-07-06T04:06:09;5.68;;;4.32;;
32523;SDS011;18965;52.242;20.886;2022-07-06T04:08:35;7.20;;;4.45;;
32523;SDS011;18965;52.242;20.886;2022-07-06T04:11:01;9.13;;;4.30;;
32523;SDS011;18965;52.242;20.886;2022-07-06T04:13:27;6.70;;;4.05;;
32523;SDS011;18965;52.242;20.886;2022-07-06T04:15:53;9.85;;;4.30;;
32523;SDS011;18965;52.242;20.886;2022-07-06T04:18:18;20.05;;;6.72;;
32523;SDS011;18965;52.242;20.886;2022-07-06T04:20:44;11.77;;;5.00;;
32523;SDS011;18965;52.242;20.886;2022-07-06T04:23:10;12.93;;;4.95;;
32523;SDS011;18965;52.242;20.886;2022-07-06T04:25:36;7.47;;;4.32;;
32523;SDS011;18965;52.242;20.886;2022-07-06T04:28:02;11.85;;;5.28;;
32523;SDS011;18965;52.242;20.886;2022-07-06T04:30:28;14.77;;;5.70;;
32523;SDS011;18965;52.242;20.886;2022-07-06T04:32:54;16.20;;;6.40;;
32523;SDS011;18965;52.242;20.886;2022-07-06T04:35:20;11.15;;;5.22;;
32523;SDS011;18965;52.242;20.886;2022-07-06T04:37:47;11.23;;;5.53;;
32523;SDS011;18965;52.242;20.886;2022-07-06T04:40:13;11.73;;;5.38;;
32523;SDS011;18965;52.242;20.886;2022-07-06T04:42:40;19.00;;;7.03;;
32523;SDS011;18965;52.242;20.886;2022-07-06T04:45:06;13.75;;;6.35;;
32523;SDS011;18965;52.242;20.886;2022-07-06T04:47:32;16.15;;;5.97;;
32523;SDS011;18965;52.242;20.886;2022-07-06T04:49:58;16.25;;;5.78;;
32523;SDS011;18965;52.242;20.886;2022-07-06T04:52:24;7.47;;;4.95;;
32523;SDS011;18965;52.242;20.886;2022-07-06T04:54:50;12.63;;;5.90;;
32523;SDS011;18965;52.242;20.886;2022-07-06T04:57:15;13.75;;;5.72;;
32523;SDS011;18965;52.242;20.886;2022-07-06T04:59:41;11.70;;;5.40;;
32523;SDS011;18965;52.242;20.886;2022-07-06T05:02:07;16.38;;;6.18;;
32523;SDS011;18965;52.242;20.886;2022-07-06T05:04:33;11.20;;;5.07;;
32523;SDS011;18965;52.242;20.886;2022-07-06T05:06:59;8.35;;;4.35;;
32523;SDS011;18965;52.242;20.886;2022-07-06T05:09:24;13.70;;;5.43;;
32523;SDS011;18965;52.242;20.886;2022-07-06T05:11:50;12.35;;;5.50;;
32523;SDS011;18965;52.242;20.886;2022-07-06T05:14:16;14.30;;;5.50;;
32523;SDS011;18965;52.242;20.886;2022-07-06T05:16:42;12.55;;;5.40;;
32523;SDS011;18965;52.242;20.886;2022-07-06T05:19:08;13.40;;;5.85;;
32523;SDS011;18965;52.242;20.886;2022-07-06T05:21:33;12.65;;;5.47;;
32523;SDS011;18965;52.242;20.886;2022-07-06T05:23:59;12.05;;;5.88;;
32523;SDS011;18965;52.242;20.886;2022-07-06T05:26:25;11.55;;;5.78;;
32523;SDS011;18965;52.242;20.886;2022-07-06T05:29:00;8.63;;;5.25;;
32523;SDS011;18965;52.242;20.886;2022-07-06T05:31:27;10.88;;;6.00;;
32523;SDS011;18965;52.242;20.886;2022-07-06T05:33:53;7.68;;;5.38;;
32523;SDS011;18965;52.242;20.886;2022-07-06T05:36:21;11.25;;;7.22;;
32523;SDS011;18965;52.242;20.886;2022-07-06T05:38:47;9.07;;;6.72;;
32523;SDS011;18965;52.242;20.886;2022-07-06T05:41:13;12.57;;;6.88;;
32523;SDS011;18965;52.242;20.886;2022-07-06T05:43:39;12.18;;;6.13;;
32523;SDS011;18965;52.242;20.886;2022-07-06T05:46:04;10.00;;;5.75;;
32523;SDS011;18965;52.242;20.886;2022-07-06T05:48:30;10.70;;;5.70;;
32523;SDS011;18965;52.242;20.886;2022-07-06T05:51:15;9.98;;;5.20;;
32523;SDS011;18965;52.242;20.886;2022-07-06T05:53:40;9.73;;;4.53;;
32523;SDS011;18965;52.242;20.886;2022-07-06T05:56:06;9.85;;;5.15;;
32523;SDS011;18965;52.242;20.886;2022-07-06T05:58:32;16.05;;;4.95;;
32523;SDS011;18965;52.242;20.886;2022-07-06T06:00:58;7.72;;;4.13;;
32523;SDS011;18965;52.242;20.886;2022-07-06T06:03:24;16.10;;;5.43;;
32523;SDS011;18965;52.242;20.886;2022-07-06T06:05:50;48.58;;;10.85;;
32523;SDS011;18965;52.242;20.886;2022-07-06T06:08:15;16.40;;;5.50;;
32523;SDS011;18965;52.242;20.886;2022-07-06T06:10:41;5.97;;;3.10;;
32523;SDS011;18965;52.242;20.886;2022-07-06T06:16:29;13.23;;;5.25;;
32523;SDS011;18965;52.242;20.886;2022-07-06T06:18:54;10.32;;;4.05;;
32523;SDS011;18965;52.242;20.886;2022-07-06T06:21:20;5.50;;;3.50;;
32523;SDS011;18965;52.242;20.886;2022-07-06T06:23:46;9.43;;;3.83;;
32523;SDS011;18965;52.242;20.886;2022-07-06T06:26:12;9.15;;;4.43;;
32523;SDS011;18965;52.242;20.886;2022-07-06T06:28:38;7.43;;;4.10;;
32523;SDS011;18965;52.242;20.886;2022-07-06T06:31:04;7.03;;;3.40;;
32523;SDS011;18965;52.242;20.886;2022-07-06T06:33:30;7.55;;;2.85;;
32523;SDS011;18965;52.242;20.886;2022-07-06T06:35:57;6.20;;;2.30;;
32523;SDS011;18965;52.242;20.886;2022-07-06T06:38:23;5.57;;;2.30;;
32523;SDS011;18965;52.242;20.886;2022-07-06T06:40:51;3.67;;;2.15;;
32523;SDS011;18965;52.242;20.886;2022-07-06T06:43:18;4.80;;;2.13;;
32523;SDS011;18965;52.242;20.886;2022-07-06T06:45:44;6.13;;;2.13;;
32523;SDS011;18965;52.242;20.886;2022-07-06T06:48:11;3.90;;;2.20;;
32523;SDS011;18965;52.242;20.886;2022-07-06T06:50:37;5.30;;;2.50;;
32523;SDS011;18965;52.242;20.886;2022-07-06T06:53:03;3.95;;;1.95;;
32523;SDS011;18965;52.242;20.886;2022-07-06T06:55:29;4.18;;;2.22;;
32523;SDS011;18965;52.242;20.886;2022-07-06T06:57:54;3.88;;;2.47;;
32523;SDS011;18965;52.242;20.886;2022-07-06T07:00:20;4.93;;;2.40;;
32523;SDS011;18965;52.242;20.886;2022-07-06T07:02:46;5.10;;;2.75;;
32523;SDS011;18965;52.242;20.886;2022-07-06T07:05:12;5.55;;;3.10;;
32523;SDS011;18965;52.242;20.886;2022-07-06T07:07:38;6.05;;;2.90;;
32523;SDS011;18965;52.242;20.886;2022-07-06T07:10:04;7.22;;;2.88;;
32523;SDS011;18965;52.242;20.886;2022-07-06T07:12:31;8.65;;;3.75;;
32523;SDS011;18965;52.242;20.886;2022-07-06T07:14:58;6.53;;;3.50;;
32523;SDS011;18965;52.242;20.886;2022-07-06T07:17:24;7.97;;;4.07;;
32523;SDS011;18965;52.242;20.886;2022-07-06T07:19:49;8.57;;;3.97;;
32523;SDS011;18965;52.242;20.886;2022-07-06T07:22:15;7.22;;;3.78;;
32523;SDS011;18965;52.242;20.886;2022-07-06T07:24:41;12.98;;;4.10;;
32523;SDS011;18965;52.242;20.886;2022-07-06T07:27:07;13.25;;;4.70;;
32523;SDS011;18965;52.242;20.886;2022-07-06T07:29:33;10.60;;;3.97;;
32523;SDS011;18965;52.242;20.886;2022-07-06T07:31:59;7.63;;;3.25;;
32523;SDS011;18965;52.242;20.886;2022-07-06T07:34:25;7.63;;;3.10;;
32523;SDS011;18965;52.242;20.886;2022-07-06T07:36:51;9.10;;;2.85;;
32523;SDS011;18965;52.242;20.886;2022-07-06T07:39:17;8.18;;;3.08;;
32523;SDS011;18965;52.242;20.886;2022-07-06T07:41:43;9.95;;;3.25;;
32523;SDS011;18965;52.242;20.886;2022-07-06T07:44:09;6.05;;;2.67;;
32523;SDS011;18965;52.242;20.886;2022-07-06T07:46:34;4.72;;;2.20;;
32523;SDS011;18965;52.242;20.886;2022-07-06T07:49:00;7.95;;;2.42;;
32523;SDS011;18965;52.242;20.886;2022-07-06T07:51:26;7.30;;;2.63;;
32523;SDS011;18965;52.242;20.886;2022-07-06T07:53:52;8.13;;;2.65;;
32523;SDS011;18965;52.242;20.886;2022-07-06T07:56:17;7.97;;;2.05;;
32523;SDS011;18965;52.242;20.886;2022-07-06T07:58:43;5.15;;;1.95;;
32523;SDS011;18965;52.242;20.886;2022-07-06T08:01:09;10.77;;;2.28;;
32523;SDS011;18965;52.242;20.886;2022-07-06T08:03:35;6.55;;;2.08;;
32523;SDS011;18965;52.242;20.886;2022-07-06T08:06:01;5.55;;;2.00;;
32523;SDS011;18965;52.242;20.886;2022-07-06T08:08:27;6.60;;;2.00;;
32523;SDS011;18965;52.242;20.886;2022-07-06T08:10:53;5.53;;;2.00;;
32523;SDS011;18965;52.242;20.886;2022-07-06T08:13:19;8.68;;;2.22;;
32523;SDS011;18965;52.242;20.886;2022-07-06T08:15:44;8.57;;;2.10;;
32523;SDS011;18965;52.242;20.886;2022-07-06T08:18:11;7.75;;;2.33;;
32523;SDS011;18965;52.242;20.886;2022-07-06T08:20:36;15.88;;;4.13;;
32523;SDS011;18965;52.242;20.886;2022-07-06T08:23:03;9.45;;;2.83;;
32523;SDS011;18965;52.242;20.886;2022-07-06T08:25:29;3.20;;;1.63;;
32523;SDS011;18965;52.242;20.886;2022-07-06T08:27:56;7.22;;;2.17;;
32523;SDS011;18965;52.242;20.886;2022-07-06T08:30:21;8.00;;;2.05;;
32523;SDS011;18965;52.242;20.886;2022-07-06T08:32:47;9.52;;;2.63;;
32523;SDS011;18965;52.242;20.886;2022-07-06T08:35:13;1.60;;;1.15;;
32523;SDS011;18965;52.242;20.886;2022-07-06T08:37:39;4.13;;;1.58;;
32523;SDS011;18965;52.242;20.886;2022-07-06T08:40:06;5.80;;;2.20;;
32523;SDS011;18965;52.242;20.886;2022-07-06T08:42:33;8.63;;;2.30;;
32523;SDS011;18965;52.242;20.886;2022-07-06T08:45:00;6.57;;;1.95;;
32523;SDS011;18965;52.242;20.886;2022-07-06T08:47:28;10.40;;;2.50;;
32523;SDS011;18965;52.242;20.886;2022-07-06T08:49:55;4.40;;;1.45;;
32523;SDS011;18965;52.242;20.886;2022-07-06T08:52:22;2.47;;;1.15;;
32523;SDS011;18965;52.242;20.886;2022-07-06T08:54:49;4.18;;;1.40;;
32523;SDS011;18965;52.242;20.886;2022-07-06T08:57:15;4.78;;;1.55;;
32523;SDS011;18965;52.242;20.886;2022-07-06T08:59:41;6.30;;;2.00;;
32523;SDS011;18965;52.242;20.886;2022-07-06T09:02:09;6.22;;;1.63;;
32523;SDS011;18965;52.242;20.886;2022-07-06T09:04:36;4.22;;;1.42;;
32523;SDS011;18965;52.242;20.886;2022-07-06T09:07:02;4.53;;;1.75;;
32523;SDS011;18965;52.242;20.886;2022-07-06T09:09:29;5.45;;;1.45;;
32523;SDS011;18965;52.242;20.886;2022-07-06T09:14:25;7.20;;;1.75;;
32523;SDS011;18965;52.242;20.886;2022-07-06T09:16:52;3.75;;;1.40;;
32523;SDS011;18965;52.242;20.886;2022-07-06T09:19:27;8.02;;;1.67;;
32523;SDS011;18965;52.242;20.886;2022-07-06T09:21:53;9.48;;;2.05;;
32523;SDS011;18965;52.242;20.886;2022-07-06T09:24:19;11.60;;;2.30;;
32523;SDS011;18965;52.242;20.886;2022-07-06T09:26:45;10.77;;;1.70;;
32523;SDS011;18965;52.242;20.886;2022-07-06T09:29:12;4.15;;;1.20;;
32523;SDS011;18965;52.242;20.886;2022-07-06T09:31:39;8.38;;;1.58;;
32523;SDS011;18965;52.242;20.886;2022-07-06T09:34:05;5.75;;;1.75;;
32523;SDS011;18965;52.242;20.886;2022-07-06T09:36:43;4.50;;;1.55;;
32523;SDS011;18965;52.242;20.886;2022-07-06T09:39:24;5.45;;;1.30;;
32523;SDS011;18965;52.242;20.886;2022-07-06T09:41:55;6.85;;;1.05;;
32523;SDS011;18965;52.242;20.886;2022-07-06T09:46:49;14.23;;;3.13;;
32523;SDS011;18965;52.242;20.886;2022-07-06T09:49:19;6.97;;;1.48;;
32523;SDS011;18965;52.242;20.886;2022-07-06T09:51:46;6.03;;;1.52;;
32523;SDS011;18965;52.242;20.886;2022-07-06T09:54:14;4.50;;;1.38;;
32523;SDS011;18965;52.242;20.886;2022-07-06T09:56:42;12.93;;;2.88;;
32523;SDS011;18965;52.242;20.886;2022-07-06T09:59:11;2.72;;;1.02;;
32523;SDS011;18965;52.242;20.886;2022-07-06T10:01:38;5.82;;;0.93;;
32523;SDS011;18965;52.242;20.886;2022-07-06T10:04:06;7.35;;;1.92;;
32523;SDS011;18965;52.242;20.886;2022-07-06T10:06:32;11.65;;;2.78;;
32523;SDS011;18965;52.242;20.886;2022-07-06T10:08:58;9.60;;;2.97;;
32523;SDS011;18965;52.242;20.886;2022-07-06T10:11:24;7.03;;;1.92;;
32523;SDS011;18965;52.242;20.886;2022-07-06T10:13:55;5.15;;;1.55;;
32523;SDS011;18965;52.242;20.886;2022-07-06T10:16:22;4.07;;;1.20;;
32523;SDS011;18965;52.242;20.886;2022-07-06T10:18:50;5.07;;;1.40;;
32523;SDS011;18965;52.242;20.886;2022-07-06T10:21:20;6.43;;;1.55;;
32523;SDS011;18965;52.242;20.886;2022-07-06T10:23:47;7.03;;;1.92;;
32523;SDS011;18965;52.242;20.886;2022-07-06T10:26:17;4.43;;;1.38;;
32523;SDS011;18965;52.242;20.886;2022-07-06T10:28:46;2.25;;;0.88;;
32523;SDS011;18965;52.242;20.886;2022-07-06T10:31:15;3.42;;;1.30;;
32523;SDS011;18965;52.242;20.886;2022-07-06T10:33:42;2.65;;;1.00;;
32523;SDS011;18965;52.242;20.886;2022-07-06T10:36:09;4.07;;;1.33;;
32523;SDS011;18965;52.242;20.886;2022-07-06T10:38:36;5.63;;;1.58;;
32523;SDS011;18965;52.242;20.886;2022-07-06T10:41:05;3.95;;;1.30;;
32523;SDS011;18965;52.242;20.886;2022-07-06T10:43:41;3.97;;;1.35;;
32523;SDS011;18965;52.242;20.886;2022-07-06T10:46:09;8.18;;;1.88;;
32523;SDS011;18965;52.242;20.886;2022-07-06T10:48:46;4.57;;;1.45;;
32523;SDS011;18965;52.242;20.886;2022-07-06T10:51:23;3.92;;;1.42;;
32523;SDS011;18965;52.242;20.886;2022-07-06T10:53:57;3.53;;;1.50;;
32523;SDS011;18965;52.242;20.886;2022-07-06T10:56:32;1.93;;;0.90;;
32523;SDS011;18965;52.242;20.886;2022-07-06T10:59:22;3.25;;;1.02;;
32523;SDS011;18965;52.242;20.886;2022-07-06T11:04:47;15.07;;;4.43;;
32523;SDS011;18965;52.242;20.886;2022-07-06T11:07:14;6.13;;;1.65;;
32523;SDS011;18965;52.242;20.886;2022-07-06T11:10:03;3.58;;;0.93;;
32523;SDS011;18965;52.242;20.886;2022-07-06T11:12:29;12.25;;;2.92;;
32523;SDS011;18965;52.242;20.886;2022-07-06T11:14:54;4.72;;;1.02;;
32523;SDS011;18965;52.242;20.886;2022-07-06T11:17:20;7.05;;;1.83;;
32523;SDS011;18965;52.242;20.886;2022-07-06T11:19:48;4.78;;;1.23;;
32523;SDS011;18965;52.242;20.886;2022-07-06T11:22:16;4.63;;;1.30;;
32523;SDS011;18965;52.242;20.886;2022-07-06T11:24:46;6.28;;;1.45;;
32523;SDS011;18965;52.242;20.886;2022-07-06T11:27:13;5.22;;;1.50;;
32523;SDS011;18965;52.242;20.886;2022-07-06T11:29:39;4.82;;;1.40;;
32523;SDS011;18965;52.242;20.886;2022-07-06T11:32:06;5.30;;;1.95;;
32523;SDS011;18965;52.242;20.886;2022-07-06T11:34:35;3.60;;;1.13;;
32523;SDS011;18965;52.242;20.886;2022-07-06T11:37:04;4.20;;;1.40;;
32523;SDS011;18965;52.242;20.886;2022-07-06T11:39:39;5.72;;;1.23;;
32523;SDS011;18965;52.242;20.886;2022-07-06T11:42:09;5.65;;;1.70;;
32523;SDS011;18965;52.242;20.886;2022-07-06T11:44:35;2.83;;;1.20;;
32523;SDS011;18965;52.242;20.886;2022-07-06T11:47:03;6.28;;;1.67;;
32523;SDS011;18965;52.242;20.886;2022-07-06T11:49:30;3.35;;;0.90;;
32523;SDS011;18965;52.242;20.886;2022-07-06T11:51:56;5.32;;;1.52;;
32523;SDS011;18965;52.242;20.886;2022-07-06T11:54:23;2.50;;;0.90;;
32523;SDS011;18965;52.242;20.886;2022-07-06T11:56:53;10.50;;;2.08;;
32523;SDS011;18965;52.242;20.886;2022-07-06T11:59:35;4.65;;;1.08;;
32523;SDS011;18965;52.242;20.886;2022-07-06T12:02:09;3.35;;;0.88;;
32523;SDS011;18965;52.242;20.886;2022-07-06T12:04:43;2.85;;;0.80;;
32523;SDS011;18965;52.242;20.886;2022-07-06T12:07:16;5.07;;;1.13;;
32523;SDS011;18965;52.242;20.886;2022-07-06T12:09:48;4.53;;;1.40;;
32523;SDS011;18965;52.242;20.886;2022-07-06T12:12:14;3.70;;;1.20;;
32523;SDS011;18965;52.242;20.886;2022-07-06T12:14:41;3.42;;;0.80;;
32523;SDS011;18965;52.242;20.886;2022-07-06T12:17:08;4.22;;;1.17;;
32523;SDS011;18965;52.242;20.886;2022-07-06T12:19:35;6.32;;;1.48;;
32523;SDS011;18965;52.242;20.886;2022-07-06T12:22:02;5.38;;;1.45;;
32523;SDS011;18965;52.242;20.886;2022-07-06T12:24:30;5.72;;;1.40;;
32523;SDS011;18965;52.242;20.886;2022-07-06T12:26:58;6.07;;;1.13;;
32523;SDS011;18965;52.242;20.886;2022-07-06T12:29:34;2.67;;;1.00;;
32523;SDS011;18965;52.242;20.886;2022-07-06T12:32:00;5.30;;;1.60;;
32523;SDS011;18965;52.242;20.886;2022-07-06T12:34:27;1.83;;;0.90;;
32523;SDS011;18965;52.242;20.886;2022-07-06T12:36:59;1.83;;;0.90;;
32523;SDS011;18965;52.242;20.886;2022-07-06T12:39:31;1.90;;;0.75;;
32523;SDS011;18965;52.242;20.886;2022-07-06T12:42:05;2.00;;;0.63;;
32523;SDS011;18965;52.242;20.886;2022-07-06T12:44:31;2.17;;;0.70;;
32523;SDS011;18965;52.242;20.886;2022-07-06T12:49:31;2.72;;;1.10;;
32523;SDS011;18965;52.242;20.886;2022-07-06T12:51:59;4.22;;;1.40;;
32523;SDS011;18965;52.242;20.886;2022-07-06T12:54:28;7.95;;;1.60;;
32523;SDS011;18965;52.242;20.886;2022-07-06T12:59:31;1.98;;;0.88;;
32523;SDS011;18965;52.242;20.886;2022-07-06T13:01:59;3.38;;;1.05;;
32523;SDS011;18965;52.242;20.886;2022-07-06T13:04:25;5.78;;;1.45;;
32523;SDS011;18965;52.242;20.886;2022-07-06T13:06:53;1.88;;;0.98;;
32523;SDS011;18965;52.242;20.886;2022-07-06T13:09:20;4.30;;;0.98;;
32523;SDS011;18965;52.242;20.886;2022-07-06T13:11:47;2.50;;;0.90;;
32523;SDS011;18965;52.242;20.886;2022-07-06T13:14:14;4.60;;;1.83;;
32523;SDS011;18965;52.242;20.886;2022-07-06T13:16:41;5.03;;;1.45;;
32523;SDS011;18965;52.242;20.886;2022-07-06T13:19:08;2.78;;;1.02;;
32523;SDS011;18965;52.242;20.886;2022-07-06T13:21:34;4.15;;;1.48;;
32523;SDS011;18965;52.242;20.886;2022-07-06T13:24:00;3.17;;;1.00;;
32523;SDS011;18965;52.242;20.886;2022-07-06T13:26:27;4.22;;;1.17;;
32523;SDS011;18965;52.242;20.886;2022-07-06T13:28:53;5.78;;;1.55;;
32523;SDS011;18965;52.242;20.886;2022-07-06T13:31:19;6.00;;;1.35;;
32523;SDS011;18965;52.242;20.886;2022-07-06T13:33:44;3.10;;;1.27;;
32523;SDS011;18965;52.242;20.886;2022-07-06T13:36:10;2.85;;;0.88;;
32523;SDS011;18965;52.242;20.886;2022-07-06T13:38:36;1.80;;;0.70;;
32523;SDS011;18965;52.242;20.886;2022-07-06T13:41:02;6.35;;;1.60;;
32523;SDS011;18965;52.242;20.886;2022-07-06T13:43:27;5.50;;;1.40;;
32523;SDS011;18965;52.242;20.886;2022-07-06T13:46:02;7.45;;;1.83;;
32523;SDS011;18965;52.242;20.886;2022-07-06T13:48:32;4.15;;;1.17;;
32523;SDS011;18965;52.242;20.886;2022-07-06T13:50:58;4.95;;;1.67;;
32523;SDS011;18965;52.242;20.886;2022-07-06T13:53:24;8.05;;;1.33;;
32523;SDS011;18965;52.242;20.886;2022-07-06T13:55:50;5.72;;;1.38;;
32523;SDS011;18965;52.242;20.886;2022-07-06T13:58:17;3.95;;;1.33;;
32523;SDS011;18965;52.242;20.886;2022-07-06T14:00:43;8.15;;;1.30;;
32523;SDS011;18965;52.242;20.886;2022-07-06T14:03:09;3.90;;;1.40;;
32523;SDS011;18965;52.242;20.886;2022-07-06T14:05:35;3.65;;;1.20;;
32523;SDS011;18965;52.242;20.886;2022-07-06T14:08:01;3.80;;;1.27;;
32523;SDS011;18965;52.242;20.886;2022-07-06T14:10:27;8.55;;;1.92;;
32523;SDS011;18965;52.242;20.886;2022-07-06T14:12:53;6.15;;;1.48;;
32523;SDS011;18965;52.242;20.886;2022-07-06T14:15:19;4.57;;;1.17;;
32523;SDS011;18965;52.242;20.886;2022-07-06T14:18:01;9.10;;;1.98;;
32523;SDS011;18965;52.242;20.886;2022-07-06T14:20:27;5.47;;;1.50;;
32523;SDS011;18965;52.242;20.886;2022-07-06T14:22:52;4.80;;;1.52;;
32523;SDS011;18965;52.242;20.886;2022-07-06T14:25:18;5.72;;;1.10;;
32523;SDS011;18965;52.242;20.886;2022-07-06T14:27:44;3.97;;;1.05;;
32523;SDS011;18965;52.242;20.886;2022-07-06T14:30:10;7.43;;;2.10;;
32523;SDS011;18965;52.242;20.886;2022-07-06T14:32:36;5.97;;;1.75;;
32523;SDS011;18965;52.242;20.886;2022-07-06T14:35:02;5.75;;;1.35;;
32523;SDS011;18965;52.242;20.886;2022-07-06T14:37:28;6.25;;;1.80;;
32523;SDS011;18965;52.242;20.886;2022-07-06T14:39:54;2.80;;;1.20;;
32523;SDS011;18965;52.242;20.886;2022-07-06T14:42:20;4.78;;;1.50;;
32523;SDS011;18965;52.242;20.886;2022-07-06T14:44:48;17.38;;;4.22;;
32523;SDS011;18965;52.242;20.886;2022-07-06T14:47:14;6.70;;;2.00;;